sensor_id;sensor_type;location;lat;lon;timestamp;P1;durP1;ratioP1;P2;durP2;ratioP2
34924;SDS011;21130;51.728;8.748;2023-02-15T00:00:14;15.98;;;12.02;;
34924;SDS011;21130;51.728;8.748;2023-02-15T00:02:41;17.13;;;12.77;;
34924;SDS011;21130;51.728;8.748;2023-02-15T00:05:08;17.23;;;12.88;;
34924;SDS011;21130;51.728;8.748;2023-02-15T00:07:34;16.27;;;12.32;;
34924;SDS011;21130;51.728;8.748;2023-02-15T00:10:02;16.25;;;12.43;;
34924;SDS011;21130;51.728;8.748;2023-02-15T00:12:29;19.02;;;13.93;;
34924;SDS011;21130;51.728;8.748;2023-02-15T00:14:55;15.45;;;12.48;;
34924;SDS011;21130;51.728;8.748;2023-02-15T00:17:22;16.52;;;13.43;;
34924;SDS011;21130;51.728;8.748;2023-02-15T00:19:48;16.42;;;12.55;;
34924;SDS011;21130;51.728;8.748;2023-02-15T00:22:15;16.85;;;12.75;;
34924;SDS011;21130;51.728;8.748;2023-02-15T00:24:41;16.17;;;12.90;;
34924;SDS011;21130;51.728;8.748;2023-02-15T00:27:09;17.30;;;13.40;;
34924;SDS011;21130;51.728;8.748;2023-02-15T00:29:36;20.27;;;13.75;;
34924;SDS011;21130;51.728;8.748;2023-02-15T00:32:02;17.42;;;12.73;;
34924;SDS011;21130;51.728;8.748;2023-02-15T00:34:29;15.32;;;12.15;;
34924;SDS011;21130;51.728;8.748;2023-02-15T00:36:55;16.02;;;12.50;;
34924;SDS011;21130;51.728;8.748;2023-02-15T00:39:22;16.77;;;12.70;;
34924;SDS011;21130;51.728;8.748;2023-02-15T00:41:49;18.52;;;13.05;;
34924;SDS011;21130;51.728;8.748;2023-02-15T00:44:17;15.68;;;12.23;;
34924;SDS011;21130;51.728;8.748;2023-02-15T00:46:43;16.92;;;12.18;;
34924;SDS011;21130;51.728;8.748;2023-02-15T00:49:10;18.80;;;13.20;;
34924;SDS011;21130;51.728;8.748;2023-02-15T00:51:36;15.55;;;12.65;;
34924;SDS011;21130;51.728;8.748;2023-02-15T00:54:04;16.95;;;13.38;;
34924;SDS011;21130;51.728;8.748;2023-02-15T00:56:30;17.92;;;13.52;;
34924;SDS011;21130;51.728;8.748;2023-02-15T00:58:57;17.15;;;12.80;;
34924;SDS011;21130;51.728;8.748;2023-02-15T01:01:25;16.88;;;13.45;;
34924;SDS011;21130;51.728;8.748;2023-02-15T01:03:52;17.38;;;13.68;;
34924;SDS011;21130;51.728;8.748;2023-02-15T01:06:18;17.30;;;12.95;;
34924;SDS011;21130;51.728;8.748;2023-02-15T01:08:45;16.45;;;13.15;;
34924;SDS011;21130;51.728;8.748;2023-02-15T01:11:12;17.80;;;13.40;;
34924;SDS011;21130;51.728;8.748;2023-02-15T01:13:47;18.05;;;13.50;;
34924;SDS011;21130;51.728;8.748;2023-02-15T01:16:13;16.80;;;12.90;;
34924;SDS011;21130;51.728;8.748;2023-02-15T01:18:41;15.65;;;12.85;;
34924;SDS011;21130;51.728;8.748;2023-02-15T01:21:08;15.43;;;12.70;;
34924;SDS011;21130;51.728;8.748;2023-02-15T01:23:36;17.85;;;13.52;;
34924;SDS011;21130;51.728;8.748;2023-02-15T01:26:03;16.15;;;13.05;;
34924;SDS011;21130;51.728;8.748;2023-02-15T01:28:30;17.88;;;13.32;;
34924;SDS011;21130;51.728;8.748;2023-02-15T01:30:57;16.58;;;12.98;;
34924;SDS011;21130;51.728;8.748;2023-02-15T01:33:24;17.73;;;13.23;;
34924;SDS011;21130;51.728;8.748;2023-02-15T01:35:56;16.48;;;12.75;;
34924;SDS011;21130;51.728;8.748;2023-02-15T01:38:24;15.40;;;12.40;;
34924;SDS011;21130;51.728;8.748;2023-02-15T01:40:50;15.50;;;12.80;;
34924;SDS011;21130;51.728;8.748;2023-02-15T01:43:17;17.42;;;13.68;;
34924;SDS011;21130;51.728;8.748;2023-02-15T01:45:43;18.55;;;14.13;;
34924;SDS011;21130;51.728;8.748;2023-02-15T01:48:17;16.67;;;13.40;;
34924;SDS011;21130;51.728;8.748;2023-02-15T01:50:47;16.02;;;13.18;;
34924;SDS011;21130;51.728;8.748;2023-02-15T01:53:20;17.15;;;12.95;;
34924;SDS011;21130;51.728;8.748;2023-02-15T01:55:51;17.77;;;13.68;;
34924;SDS011;21130;51.728;8.748;2023-02-15T01:58:21;17.83;;;12.93;;
34924;SDS011;21130;51.728;8.748;2023-02-15T02:00:48;17.17;;;12.95;;
34924;SDS011;21130;51.728;8.748;2023-02-15T02:03:15;19.55;;;13.95;;
34924;SDS011;21130;51.728;8.748;2023-02-15T02:05:42;15.68;;;12.43;;
34924;SDS011;21130;51.728;8.748;2023-02-15T02:08:08;16.48;;;13.25;;
34924;SDS011;21130;51.728;8.748;2023-02-15T02:10:36;16.33;;;12.55;;
34924;SDS011;21130;51.728;8.748;2023-02-15T02:13:04;16.35;;;13.25;;
34924;SDS011;21130;51.728;8.748;2023-02-15T02:15:33;16.25;;;12.63;;
34924;SDS011;21130;51.728;8.748;2023-02-15T02:18:20;17.30;;;12.65;;
34924;SDS011;21130;51.728;8.748;2023-02-15T02:20:59;16.48;;;13.15;;
34924;SDS011;21130;51.728;8.748;2023-02-15T02:23:45;17.02;;;13.20;;
34924;SDS011;21130;51.728;8.748;2023-02-15T02:27:05;19.23;;;13.10;;
34924;SDS011;21130;51.728;8.748;2023-02-15T02:36:27;16.65;;;12.90;;
34924;SDS011;21130;51.728;8.748;2023-02-15T02:39:05;16.77;;;13.52;;
34924;SDS011;21130;51.728;8.748;2023-02-15T02:41:42;16.90;;;13.00;;
34924;SDS011;21130;51.728;8.748;2023-02-15T02:44:16;16.33;;;13.15;;
34924;SDS011;21130;51.728;8.748;2023-02-15T02:46:49;16.77;;;13.45;;
34924;SDS011;21130;51.728;8.748;2023-02-15T02:49:27;18.02;;;14.45;;
34924;SDS011;21130;51.728;8.748;2023-02-15T02:51:59;16.92;;;13.05;;
34924;SDS011;21130;51.728;8.748;2023-02-15T02:54:26;17.75;;;13.13;;
34924;SDS011;21130;51.728;8.748;2023-02-15T02:56:54;17.27;;;13.18;;
34924;SDS011;21130;51.728;8.748;2023-02-15T02:59:24;18.52;;;14.52;;
34924;SDS011;21130;51.728;8.748;2023-02-15T03:01:55;15.80;;;13.00;;
34924;SDS011;21130;51.728;8.748;2023-02-15T03:04:28;16.38;;;12.88;;
34924;SDS011;21130;51.728;8.748;2023-02-15T03:07:00;17.95;;;13.63;;
34924;SDS011;21130;51.728;8.748;2023-02-15T03:09:29;16.85;;;13.35;;
34924;SDS011;21130;51.728;8.748;2023-02-15T03:12:06;16.25;;;13.23;;
34924;SDS011;21130;51.728;8.748;2023-02-15T03:14:33;18.08;;;13.65;;
34924;SDS011;21130;51.728;8.748;2023-02-15T03:17:01;17.25;;;13.57;;
34924;SDS011;21130;51.728;8.748;2023-02-15T03:19:30;16.42;;;12.75;;
34924;SDS011;21130;51.728;8.748;2023-02-15T03:22:03;17.33;;;13.27;;
34924;SDS011;21130;51.728;8.748;2023-02-15T03:24:34;17.13;;;12.88;;
34924;SDS011;21130;51.728;8.748;2023-02-15T03:27:04;18.92;;;13.82;;
34924;SDS011;21130;51.728;8.748;2023-02-15T03:29:35;16.40;;;12.65;;
34924;SDS011;21130;51.728;8.748;2023-02-15T03:32:05;16.88;;;12.88;;
34924;SDS011;21130;51.728;8.748;2023-02-15T03:34:35;18.05;;;12.82;;
34924;SDS011;21130;51.728;8.748;2023-02-15T03:37:04;16.70;;;12.73;;
34924;SDS011;21130;51.728;8.748;2023-02-15T03:39:38;18.70;;;13.95;;
34924;SDS011;21130;51.728;8.748;2023-02-15T03:42:08;16.98;;;12.98;;
34924;SDS011;21130;51.728;8.748;2023-02-15T03:44:42;17.65;;;13.43;;
34924;SDS011;21130;51.728;8.748;2023-02-15T03:47:17;16.85;;;13.13;;
34924;SDS011;21130;51.728;8.748;2023-02-15T03:49:48;18.00;;;14.02;;
34924;SDS011;21130;51.728;8.748;2023-02-15T03:52:19;18.35;;;13.38;;
34924;SDS011;21130;51.728;8.748;2023-02-15T03:54:49;16.38;;;12.70;;
34924;SDS011;21130;51.728;8.748;2023-02-15T03:57:17;17.70;;;13.55;;
34924;SDS011;21130;51.728;8.748;2023-02-15T04:00:05;18.98;;;13.70;;
34924;SDS011;21130;51.728;8.748;2023-02-15T04:02:58;18.08;;;13.35;;
34924;SDS011;21130;51.728;8.748;2023-02-15T04:05:34;16.75;;;13.27;;
34924;SDS011;21130;51.728;8.748;2023-02-15T04:08:02;16.40;;;12.85;;
34924;SDS011;21130;51.728;8.748;2023-02-15T04:10:29;17.42;;;12.88;;
34924;SDS011;21130;51.728;8.748;2023-02-15T04:13:15;18.77;;;13.40;;
34924;SDS011;21130;51.728;8.748;2023-02-15T04:15:42;18.85;;;14.43;;
34924;SDS011;21130;51.728;8.748;2023-02-15T04:18:26;20.10;;;13.90;;
34924;SDS011;21130;51.728;8.748;2023-02-15T04:21:10;17.42;;;13.02;;
34924;SDS011;21130;51.728;8.748;2023-02-15T04:23:55;17.23;;;13.00;;
34924;SDS011;21130;51.728;8.748;2023-02-15T04:26:40;18.88;;;13.45;;
34924;SDS011;21130;51.728;8.748;2023-02-15T04:29:07;17.30;;;13.05;;
34924;SDS011;21130;51.728;8.748;2023-02-15T04:31:33;19.25;;;13.90;;
34924;SDS011;21130;51.728;8.748;2023-02-15T04:33:59;18.30;;;12.90;;
34924;SDS011;21130;51.728;8.748;2023-02-15T04:36:26;18.10;;;13.05;;
34924;SDS011;21130;51.728;8.748;2023-02-15T04:38:52;19.10;;;13.38;;
34924;SDS011;21130;51.728;8.748;2023-02-15T04:41:20;19.00;;;14.27;;
34924;SDS011;21130;51.728;8.748;2023-02-15T04:43:47;18.25;;;13.20;;
34924;SDS011;21130;51.728;8.748;2023-02-15T04:46:13;19.00;;;13.63;;
34924;SDS011;21130;51.728;8.748;2023-02-15T04:48:39;18.63;;;12.93;;
34924;SDS011;21130;51.728;8.748;2023-02-15T04:51:06;18.58;;;13.35;;
34924;SDS011;21130;51.728;8.748;2023-02-15T04:53:33;18.58;;;13.65;;
34924;SDS011;21130;51.728;8.748;2023-02-15T04:55:59;19.70;;;13.75;;
34924;SDS011;21130;51.728;8.748;2023-02-15T04:58:27;18.73;;;13.82;;
34924;SDS011;21130;51.728;8.748;2023-02-15T05:00:54;18.15;;;13.10;;
34924;SDS011;21130;51.728;8.748;2023-02-15T05:03:21;16.95;;;12.95;;
34924;SDS011;21130;51.728;8.748;2023-02-15T05:05:47;19.05;;;14.52;;
34924;SDS011;21130;51.728;8.748;2023-02-15T05:08:14;17.60;;;13.45;;
34924;SDS011;21130;51.728;8.748;2023-02-15T05:10:41;18.00;;;13.25;;
34924;SDS011;21130;51.728;8.748;2023-02-15T05:13:07;18.65;;;13.48;;
34924;SDS011;21130;51.728;8.748;2023-02-15T05:15:35;17.70;;;13.80;;
34924;SDS011;21130;51.728;8.748;2023-02-15T05:18:02;19.77;;;13.77;;
34924;SDS011;21130;51.728;8.748;2023-02-15T05:20:29;18.65;;;13.90;;
34924;SDS011;21130;51.728;8.748;2023-02-15T05:22:55;19.55;;;13.95;;
34924;SDS011;21130;51.728;8.748;2023-02-15T05:25:21;18.88;;;13.50;;
34924;SDS011;21130;51.728;8.748;2023-02-15T05:28:07;18.23;;;13.52;;
34924;SDS011;21130;51.728;8.748;2023-02-15T05:30:47;19.08;;;13.95;;
34924;SDS011;21130;51.728;8.748;2023-02-15T05:33:15;17.85;;;13.10;;
34924;SDS011;21130;51.728;8.748;2023-02-15T05:35:41;17.35;;;13.80;;
34924;SDS011;21130;51.728;8.748;2023-02-15T05:38:08;18.40;;;13.60;;
34924;SDS011;21130;51.728;8.748;2023-02-15T05:40:35;19.23;;;13.63;;
34924;SDS011;21130;51.728;8.748;2023-02-15T05:43:01;19.60;;;13.73;;
34924;SDS011;21130;51.728;8.748;2023-02-15T05:45:28;19.48;;;13.80;;
34924;SDS011;21130;51.728;8.748;2023-02-15T05:47:55;20.08;;;13.77;;
34924;SDS011;21130;51.728;8.748;2023-02-15T05:50:23;17.33;;;13.35;;
34924;SDS011;21130;51.728;8.748;2023-02-15T05:52:49;19.10;;;13.48;;
34924;SDS011;21130;51.728;8.748;2023-02-15T05:55:16;19.10;;;13.55;;
34924;SDS011;21130;51.728;8.748;2023-02-15T05:57:43;19.02;;;13.85;;
34924;SDS011;21130;51.728;8.748;2023-02-15T06:00:10;19.63;;;14.30;;
34924;SDS011;21130;51.728;8.748;2023-02-15T06:02:38;18.95;;;13.38;;
34924;SDS011;21130;51.728;8.748;2023-02-15T06:05:07;16.02;;;12.57;;
34924;SDS011;21130;51.728;8.748;2023-02-15T06:07:34;22.50;;;13.50;;
34924;SDS011;21130;51.728;8.748;2023-02-15T06:10:01;18.30;;;13.55;;
34924;SDS011;21130;51.728;8.748;2023-02-15T06:12:27;20.25;;;13.80;;
34924;SDS011;21130;51.728;8.748;2023-02-15T06:14:53;21.10;;;14.43;;
34924;SDS011;21130;51.728;8.748;2023-02-15T06:17:20;18.16;;;13.73;;
34924;SDS011;21130;51.728;8.748;2023-02-15T06:19:47;19.60;;;13.57;;
34924;SDS011;21130;51.728;8.748;2023-02-15T06:22:15;19.33;;;14.00;;
34924;SDS011;21130;51.728;8.748;2023-02-15T06:24:41;20.65;;;13.75;;
34924;SDS011;21130;51.728;8.748;2023-02-15T06:27:08;20.80;;;13.77;;
34924;SDS011;21130;51.728;8.748;2023-02-15T06:29:35;21.60;;;14.75;;
34924;SDS011;21130;51.728;8.748;2023-02-15T06:32:01;22.48;;;14.68;;
34924;SDS011;21130;51.728;8.748;2023-02-15T06:34:28;19.88;;;14.30;;
34924;SDS011;21130;51.728;8.748;2023-02-15T06:36:55;20.42;;;14.63;;
34924;SDS011;21130;51.728;8.748;2023-02-15T06:39:23;19.98;;;14.10;;
34924;SDS011;21130;51.728;8.748;2023-02-15T06:41:49;21.70;;;14.90;;
34924;SDS011;21130;51.728;8.748;2023-02-15T06:44:15;19.48;;;14.52;;
34924;SDS011;21130;51.728;8.748;2023-02-15T06:46:42;20.55;;;14.25;;
34924;SDS011;21130;51.728;8.748;2023-02-15T06:49:08;18.65;;;13.68;;
34924;SDS011;21130;51.728;8.748;2023-02-15T06:51:35;18.88;;;13.65;;
34924;SDS011;21130;51.728;8.748;2023-02-15T06:54:01;22.50;;;14.75;;
34924;SDS011;21130;51.728;8.748;2023-02-15T06:56:30;20.73;;;15.00;;
34924;SDS011;21130;51.728;8.748;2023-02-15T06:58:57;18.38;;;12.82;;
34924;SDS011;21130;51.728;8.748;2023-02-15T07:01:23;19.38;;;13.98;;
34924;SDS011;21130;51.728;8.748;2023-02-15T07:03:50;17.92;;;13.23;;
34924;SDS011;21130;51.728;8.748;2023-02-15T07:06:16;21.58;;;14.38;;
34924;SDS011;21130;51.728;8.748;2023-02-15T07:08:43;18.60;;;14.05;;
34924;SDS011;21130;51.728;8.748;2023-02-15T07:11:09;17.75;;;13.45;;
34924;SDS011;21130;51.728;8.748;2023-02-15T07:13:54;19.88;;;14.05;;
34924;SDS011;21130;51.728;8.748;2023-02-15T07:16:21;20.73;;;13.73;;
34924;SDS011;21130;51.728;8.748;2023-02-15T07:18:48;21.85;;;14.18;;
34924;SDS011;21130;51.728;8.748;2023-02-15T07:21:14;19.90;;;12.90;;
34924;SDS011;21130;51.728;8.748;2023-02-15T07:23:41;19.13;;;13.35;;
34924;SDS011;21130;51.728;8.748;2023-02-15T07:26:07;20.65;;;13.30;;
34924;SDS011;21130;51.728;8.748;2023-02-15T07:28:34;18.73;;;13.45;;
34924;SDS011;21130;51.728;8.748;2023-02-15T07:31:02;19.70;;;13.68;;
34924;SDS011;21130;51.728;8.748;2023-02-15T07:33:29;19.98;;;13.93;;
34924;SDS011;21130;51.728;8.748;2023-02-15T07:35:57;18.45;;;12.85;;
34924;SDS011;21130;51.728;8.748;2023-02-15T07:38:26;18.52;;;12.98;;
34924;SDS011;21130;51.728;8.748;2023-02-15T07:40:57;17.00;;;12.48;;
34924;SDS011;21130;51.728;8.748;2023-02-15T07:43:24;16.63;;;12.23;;
34924;SDS011;21130;51.728;8.748;2023-02-15T07:45:50;17.33;;;12.40;;
34924;SDS011;21130;51.728;8.748;2023-02-15T07:48:18;19.15;;;12.93;;
34924;SDS011;21130;51.728;8.748;2023-02-15T07:50:44;17.00;;;12.93;;
34924;SDS011;21130;51.728;8.748;2023-02-15T07:53:11;16.63;;;12.35;;
34924;SDS011;21130;51.728;8.748;2023-02-15T07:55:39;17.70;;;12.95;;
34924;SDS011;21130;51.728;8.748;2023-02-15T07:58:05;16.95;;;12.85;;
34924;SDS011;21130;51.728;8.748;2023-02-15T08:00:31;18.55;;;13.63;;
34924;SDS011;21130;51.728;8.748;2023-02-15T08:03:19;17.33;;;12.80;;
34924;SDS011;21130;51.728;8.748;2023-02-15T08:05:48;15.18;;;11.93;;
34924;SDS011;21130;51.728;8.748;2023-02-15T08:08:14;16.50;;;12.23;;
34924;SDS011;21130;51.728;8.748;2023-02-15T08:11:13;15.18;;;11.50;;
34924;SDS011;21130;51.728;8.748;2023-02-15T08:14:09;13.82;;;10.90;;
34924;SDS011;21130;51.728;8.748;2023-02-15T08:16:37;15.05;;;11.63;;
34924;SDS011;21130;51.728;8.748;2023-02-15T08:19:06;15.75;;;11.07;;
34924;SDS011;21130;51.728;8.748;2023-02-15T08:21:34;13.82;;;11.05;;
34924;SDS011;21130;51.728;8.748;2023-02-15T08:24:02;14.15;;;11.15;;
34924;SDS011;21130;51.728;8.748;2023-02-15T08:26:31;12.95;;;10.48;;
34924;SDS011;21130;51.728;8.748;2023-02-15T08:28:58;13.52;;;10.45;;
34924;SDS011;21130;51.728;8.748;2023-02-15T08:31:25;13.63;;;10.73;;
34924;SDS011;21130;51.728;8.748;2023-02-15T08:33:53;12.13;;;9.35;;
34924;SDS011;21130;51.728;8.748;2023-02-15T08:36:40;11.65;;;9.82;;
34924;SDS011;21130;51.728;8.748;2023-02-15T08:39:10;11.25;;;9.10;;
34924;SDS011;21130;51.728;8.748;2023-02-15T08:41:39;11.82;;;9.50;;
34924;SDS011;21130;51.728;8.748;2023-02-15T08:44:07;11.93;;;9.88;;
34924;SDS011;21130;51.728;8.748;2023-02-15T08:46:36;12.30;;;9.45;;
34924;SDS011;21130;51.728;8.748;2023-02-15T08:49:03;11.82;;;9.52;;
34924;SDS011;21130;51.728;8.748;2023-02-15T08:51:30;10.73;;;9.20;;
34924;SDS011;21130;51.728;8.748;2023-02-15T08:53:59;11.52;;;9.00;;
34924;SDS011;21130;51.728;8.748;2023-02-15T08:56:28;12.25;;;9.60;;
34924;SDS011;21130;51.728;8.748;2023-02-15T08:58:59;12.38;;;8.73;;
34924;SDS011;21130;51.728;8.748;2023-02-15T09:01:27;13.05;;;9.45;;
34924;SDS011;21130;51.728;8.748;2023-02-15T09:03:55;10.70;;;9.27;;
34924;SDS011;21130;51.728;8.748;2023-02-15T09:06:23;10.93;;;8.75;;
34924;SDS011;21130;51.728;8.748;2023-02-15T09:08:50;9.73;;;8.40;;
34924;SDS011;21130;51.728;8.748;2023-02-15T09:11:18;10.18;;;8.93;;
34924;SDS011;21130;51.728;8.748;2023-02-15T09:13:49;10.13;;;8.70;;
34924;SDS011;21130;51.728;8.748;2023-02-15T09:16:19;9.68;;;8.68;;
34924;SDS011;21130;51.728;8.748;2023-02-15T09:18:46;9.55;;;8.52;;
34924;SDS011;21130;51.728;8.748;2023-02-15T09:21:14;9.48;;;8.18;;
34924;SDS011;21130;51.728;8.748;2023-02-15T09:23:43;10.93;;;8.65;;
34924;SDS011;21130;51.728;8.748;2023-02-15T09:26:12;9.85;;;8.63;;
34924;SDS011;21130;51.728;8.748;2023-02-15T09:28:40;9.60;;;8.60;;
34924;SDS011;21130;51.728;8.748;2023-02-15T09:33:37;9.52;;;8.43;;
34924;SDS011;21130;51.728;8.748;2023-02-15T09:36:04;9.10;;;8.10;;
34924;SDS011;21130;51.728;8.748;2023-02-15T09:38:32;9.00;;;8.02;;
34924;SDS011;21130;51.728;8.748;2023-02-15T09:41:04;8.45;;;7.43;;
34924;SDS011;21130;51.728;8.748;2023-02-15T09:43:52;8.75;;;7.85;;
34924;SDS011;21130;51.728;8.748;2023-02-15T09:46:33;8.05;;;7.25;;
34924;SDS011;21130;51.728;8.748;2023-02-15T09:49:11;9.38;;;8.45;;
34924;SDS011;21130;51.728;8.748;2023-02-15T09:54:47;9.13;;;8.00;;
34924;SDS011;21130;51.728;8.748;2023-02-15T09:57:26;9.85;;;8.82;;
34924;SDS011;21130;51.728;8.748;2023-02-15T10:00:02;9.20;;;8.20;;
34924;SDS011;21130;51.728;8.748;2023-02-15T10:02:39;9.43;;;8.43;;
34924;SDS011;21130;51.728;8.748;2023-02-15T10:05:21;9.90;;;8.68;;
34924;SDS011;21130;51.728;8.748;2023-02-15T10:08:04;9.45;;;8.02;;
34924;SDS011;21130;51.728;8.748;2023-02-15T10:10:51;8.80;;;7.85;;
34924;SDS011;21130;51.728;8.748;2023-02-15T10:13:50;8.63;;;7.82;;
34924;SDS011;21130;51.728;8.748;2023-02-15T10:16:26;8.63;;;7.75;;
34924;SDS011;21130;51.728;8.748;2023-02-15T10:19:02;9.27;;;8.38;;
34924;SDS011;21130;51.728;8.748;2023-02-15T10:21:42;9.40;;;8.40;;
34924;SDS011;21130;51.728;8.748;2023-02-15T10:24:35;9.05;;;8.15;;
34924;SDS011;21130;51.728;8.748;2023-02-15T10:27:13;8.60;;;7.70;;
34924;SDS011;21130;51.728;8.748;2023-02-15T10:29:46;9.13;;;8.00;;
34924;SDS011;21130;51.728;8.748;2023-02-15T10:32:22;9.32;;;8.43;;
34924;SDS011;21130;51.728;8.748;2023-02-15T10:34:51;8.95;;;8.05;;
34924;SDS011;21130;51.728;8.748;2023-02-15T10:37:32;9.38;;;8.48;;
34924;SDS011;21130;51.728;8.748;2023-02-15T10:40:25;9.35;;;8.35;;
34924;SDS011;21130;51.728;8.748;2023-02-15T10:45:54;8.70;;;7.65;;
34924;SDS011;21130;51.728;8.748;2023-02-15T10:48:31;8.70;;;7.90;;
34924;SDS011;21130;51.728;8.748;2023-02-15T10:51:10;9.18;;;8.18;;
34924;SDS011;21130;51.728;8.748;2023-02-15T10:53:48;8.73;;;7.82;;
34924;SDS011;21130;51.728;8.748;2023-02-15T10:56:29;8.60;;;7.75;;
34924;SDS011;21130;51.728;8.748;2023-02-15T10:59:05;9.48;;;8.30;;
34924;SDS011;21130;51.728;8.748;2023-02-15T11:01:46;8.77;;;7.88;;
34924;SDS011;21130;51.728;8.748;2023-02-15T11:04:33;8.35;;;7.45;;
34924;SDS011;21130;51.728;8.748;2023-02-15T11:07:08;8.45;;;7.55;;
34924;SDS011;21130;51.728;8.748;2023-02-15T11:09:44;8.25;;;7.45;;
34924;SDS011;21130;51.728;8.748;2023-02-15T11:12:14;8.65;;;7.65;;
34924;SDS011;21130;51.728;8.748;2023-02-15T11:14:46;8.07;;;7.28;;
34924;SDS011;21130;51.728;8.748;2023-02-15T11:17:17;7.93;;;7.15;;
34924;SDS011;21130;51.728;8.748;2023-02-15T11:19:51;8.25;;;7.45;;
34924;SDS011;21130;51.728;8.748;2023-02-15T11:22:25;12.23;;;9.95;;
34924;SDS011;21130;51.728;8.748;2023-02-15T11:24:53;9.63;;;8.73;;
34924;SDS011;21130;51.728;8.748;2023-02-15T11:27:25;8.18;;;7.30;;
34924;SDS011;21130;51.728;8.748;2023-02-15T11:29:57;8.30;;;7.38;;
34924;SDS011;21130;51.728;8.748;2023-02-15T11:32:27;9.13;;;8.20;;
34924;SDS011;21130;51.728;8.748;2023-02-15T11:34:59;8.82;;;7.75;;
34924;SDS011;21130;51.728;8.748;2023-02-15T11:37:32;8.05;;;7.25;;
34924;SDS011;21130;51.728;8.748;2023-02-15T11:40:12;8.60;;;7.60;;
34924;SDS011;21130;51.728;8.748;2023-02-15T11:42:46;10.48;;;7.93;;
34924;SDS011;21130;51.728;8.748;2023-02-15T11:45:18;8.80;;;7.78;;
34924;SDS011;21130;51.728;8.748;2023-02-15T11:47:49;10.52;;;7.28;;
34924;SDS011;21130;51.728;8.748;2023-02-15T11:50:18;10.80;;;7.80;;
34924;SDS011;21130;51.728;8.748;2023-02-15T11:52:48;9.35;;;7.63;;
34924;SDS011;21130;51.728;8.748;2023-02-15T11:55:18;8.88;;;7.80;;
34924;SDS011;21130;51.728;8.748;2023-02-15T11:57:47;8.75;;;7.60;;
34924;SDS011;21130;51.728;8.748;2023-02-15T12:00:20;9.45;;;7.90;;
34924;SDS011;21130;51.728;8.748;2023-02-15T12:02:57;11.02;;;8.50;;
34924;SDS011;21130;51.728;8.748;2023-02-15T12:05:24;9.77;;;8.23;;
34924;SDS011;21130;51.728;8.748;2023-02-15T12:07:54;9.93;;;7.60;;
34924;SDS011;21130;51.728;8.748;2023-02-15T12:10:28;10.25;;;8.05;;
34924;SDS011;21130;51.728;8.748;2023-02-15T12:13:10;10.27;;;7.97;;
34924;SDS011;21130;51.728;8.748;2023-02-15T12:15:38;9.55;;;8.25;;
34924;SDS011;21130;51.728;8.748;2023-02-15T12:18:15;8.52;;;7.50;;
34924;SDS011;21130;51.728;8.748;2023-02-15T12:20:45;10.65;;;8.02;;
34924;SDS011;21130;51.728;8.748;2023-02-15T12:23:12;8.80;;;7.90;;
34924;SDS011;21130;51.728;8.748;2023-02-15T12:25:43;9.30;;;7.82;;
34924;SDS011;21130;51.728;8.748;2023-02-15T12:28:23;8.35;;;7.45;;
34924;SDS011;21130;51.728;8.748;2023-02-15T12:30:53;8.23;;;7.43;;
34924;SDS011;21130;51.728;8.748;2023-02-15T12:33:25;8.73;;;7.72;;
34924;SDS011;21130;51.728;8.748;2023-02-15T12:35:57;8.70;;;7.53;;
34924;SDS011;21130;51.728;8.748;2023-02-15T12:38:26;8.98;;;7.55;;
34924;SDS011;21130;51.728;8.748;2023-02-15T12:40:59;9.48;;;8.10;;
34924;SDS011;21130;51.728;8.748;2023-02-15T12:43:27;8.88;;;7.70;;
34924;SDS011;21130;51.728;8.748;2023-02-15T12:46:13;8.95;;;7.78;;
34924;SDS011;21130;51.728;8.748;2023-02-15T12:48:46;10.35;;;7.43;;
34924;SDS011;21130;51.728;8.748;2023-02-15T12:51:14;8.68;;;7.60;;
34924;SDS011;21130;51.728;8.748;2023-02-15T12:53:41;9.63;;;7.70;;
34924;SDS011;21130;51.728;8.748;2023-02-15T12:56:10;9.68;;;7.93;;
34924;SDS011;21130;51.728;8.748;2023-02-15T12:58:37;8.27;;;7.47;;
34924;SDS011;21130;51.728;8.748;2023-02-15T13:01:10;9.18;;;7.88;;
34924;SDS011;21130;51.728;8.748;2023-02-15T13:03:48;7.82;;;7.03;;
34924;SDS011;21130;51.728;8.748;2023-02-15T13:06:23;8.80;;;7.90;;
34924;SDS011;21130;51.728;8.748;2023-02-15T13:08:51;8.57;;;7.68;;
34924;SDS011;21130;51.728;8.748;2023-02-15T13:11:22;8.32;;;7.38;;
34924;SDS011;21130;51.728;8.748;2023-02-15T13:13:53;8.68;;;7.60;;
34924;SDS011;21130;51.728;8.748;2023-02-15T13:16:26;9.65;;;7.82;;
34924;SDS011;21130;51.728;8.748;2023-02-15T13:18:57;9.45;;;7.30;;
34924;SDS011;21130;51.728;8.748;2023-02-15T13:21:31;8.27;;;7.30;;
34924;SDS011;21130;51.728;8.748;2023-02-15T13:24:04;8.48;;;7.55;;
34924;SDS011;21130;51.728;8.748;2023-02-15T13:26:35;8.27;;;7.20;;
34924;SDS011;21130;51.728;8.748;2023-02-15T13:29:05;9.32;;;7.47;;
34924;SDS011;21130;51.728;8.748;2023-02-15T13:31:35;7.93;;;7.07;;
34924;SDS011;21130;51.728;8.748;2023-02-15T13:34:03;8.50;;;7.15;;
34924;SDS011;21130;51.728;8.748;2023-02-15T13:36:38;10.23;;;7.53;;
34924;SDS011;21130;51.728;8.748;2023-02-15T13:39:18;8.95;;;7.40;;
34924;SDS011;21130;51.728;8.748;2023-02-15T13:41:53;8.57;;;7.38;;
34924;SDS011;21130;51.728;8.748;2023-02-15T13:44:32;7.30;;;6.35;;
34924;SDS011;21130;51.728;8.748;2023-02-15T13:47:21;8.02;;;7.15;;
34924;SDS011;21130;51.728;8.748;2023-02-15T13:49:58;8.95;;;7.30;;
34924;SDS011;21130;51.728;8.748;2023-02-15T13:52:38;8.60;;;7.70;;
34924;SDS011;21130;51.728;8.748;2023-02-15T13:55:20;8.68;;;6.88;;
34924;SDS011;21130;51.728;8.748;2023-02-15T13:58:01;10.32;;;7.72;;
34924;SDS011;21130;51.728;8.748;2023-02-15T14:00:36;9.88;;;7.63;;
34924;SDS011;21130;51.728;8.748;2023-02-15T14:03:24;7.80;;;7.00;;
34924;SDS011;21130;51.728;8.748;2023-02-15T14:06:14;8.02;;;7.13;;
34924;SDS011;21130;51.728;8.748;2023-02-15T14:09:04;7.82;;;7.03;;
34924;SDS011;21130;51.728;8.748;2023-02-15T14:11:47;7.57;;;6.80;;
34924;SDS011;21130;51.728;8.748;2023-02-15T14:14:36;8.35;;;7.45;;
34924;SDS011;21130;51.728;8.748;2023-02-15T14:17:17;7.35;;;6.65;;
34924;SDS011;21130;51.728;8.748;2023-02-15T14:19:50;9.02;;;7.53;;
34924;SDS011;21130;51.728;8.748;2023-02-15T14:22:22;8.43;;;7.38;;
34924;SDS011;21130;51.728;8.748;2023-02-15T14:24:58;8.95;;;8.05;;
34924;SDS011;21130;51.728;8.748;2023-02-15T14:27:39;8.70;;;7.80;;
34924;SDS011;21130;51.728;8.748;2023-02-15T14:30:15;9.52;;;8.15;;
34924;SDS011;21130;51.728;8.748;2023-02-15T14:32:47;8.27;;;7.32;;
34924;SDS011;21130;51.728;8.748;2023-02-15T14:35:17;9.48;;;7.63;;
34924;SDS011;21130;51.728;8.748;2023-02-15T14:37:46;9.77;;;8.13;;
34924;SDS011;21130;51.728;8.748;2023-02-15T14:40:33;11.15;;;8.18;;
34924;SDS011;21130;51.728;8.748;2023-02-15T14:43:28;7.90;;;7.20;;
34924;SDS011;21130;51.728;8.748;2023-02-15T14:46:14;8.32;;;7.45;;
34924;SDS011;21130;51.728;8.748;2023-02-15T14:48:47;8.82;;;7.78;;
34924;SDS011;21130;51.728;8.748;2023-02-15T14:57:25;9.48;;;8.07;;
34924;SDS011;21130;51.728;8.748;2023-02-15T14:59:53;8.88;;;8.00;;
34924;SDS011;21130;51.728;8.748;2023-02-15T15:02:24;9.60;;;8.60;;
34924;SDS011;21130;51.728;8.748;2023-02-15T15:04:55;9.90;;;8.60;;
34924;SDS011;21130;51.728;8.748;2023-02-15T15:07:27;8.40;;;7.60;;
34924;SDS011;21130;51.728;8.748;2023-02-15T15:10:03;11.02;;;8.50;;
34924;SDS011;21130;51.728;8.748;2023-02-15T15:12:42;11.70;;;9.40;;
34924;SDS011;21130;51.728;8.748;2023-02-15T15:15:11;9.32;;;8.27;;
34924;SDS011;21130;51.728;8.748;2023-02-15T15:17:55;10.18;;;8.88;;